• Join FlightAware (Why Join?)
  • Login
  • US Flag 
12:50PM EDT


 

Airport Tracker/Info


-or-


 

Live Flight TrackerFlight Track Log ✈ N498QS ✈ 02-May-2013 ✈ KSTS - KHND

Flight Track Log - Related Links

Times and Time Zones

All times are in EDT time to prevent confusion due to time zone crossing. See the N498QS flight status page for this flight to view local times or setup timezone preferences in your user account.

Time Position Orientation Groundspeed Altitude Reporting Facility
EDT Latitude Longitude Course Direction KTS MPH feet Rate Location/Type
03:29PM 38.4850 -122.7931 113° Southeast 190 219 1,700  Level Oakland Center
03:30PM 38.4342 -122.7456 144° Southeast 248 285 4,900 3,360 Climbing Oakland Center
03:31PM 38.4139 -122.6483 105° East 283 326 8,600 3,060 Climbing Oakland Center
03:32PM 38.2028 -122.0736 117° Southeast  Level FlightAware Approximate
03:32PM 38.3958 -122.5433 102° East 300 345 11,200  Level Oakland Center
03:33PM 38.1554 -121.9495 113° Southeast  Level FlightAware Approximate
03:33PM 38.3756 -122.4189 102° East 353 406 13,900  Level Oakland Center
03:34PM 38.0993 -121.8316 119° Southeast  Level FlightAware Approximate
03:34PM 38.3556 -122.2869 101° East 372 428 16,400  Level Oakland Center
03:35PM 38.0469 -121.7074 113° Southeast  Level FlightAware Approximate
03:35PM 38.3311 -122.1464 102° East 396 456 18,800  Level Oakland Center
03:36PM 38.3078 -122.0011 102° East 411 473 21,400 2,400 Climbing Oakland Center
03:37PM 38.2789 -121.8233 102° East 423 487 23,800 2,160 Climbing Oakland Center
03:38PM 38.2519 -121.6689 102° East 439 505 25,900 1,800 Climbing Oakland Center
03:39PM 38.2264 -121.5111 102° East 452 520 27,500 1,560 Climbing Oakland Center
03:40PM 38.2008 -121.3636 102° East 472 543 29,100 2,160 Climbing Oakland Center
03:41PM 38.1675 -121.1653 102° East 481 554 31,900 2,400 Climbing Oakland Center
03:42PM 38.1392 -121.0019 102° East 479 551 34,100 1,500 Climbing Oakland Center
03:43PM 38.1108 -120.8383 102° East 477 549 35,000 420 Climbing Oakland Center
03:44PM 38.0817 -120.6689 102° East 490 564 35,000  Level Oakland Center
03:45PM 38.0508 -120.4983 103° East 496 571 35,000  Level Oakland Center
03:46PM 38.0203 -120.3272 103° East 498 573 35,000  Level Oakland Center
03:48PM 37.9894 -120.1569 103° East 495 570 35,000  Level Oakland Center
03:49PM 37.9594 -119.9889 103° East 490 564 35,000  Level Oakland Center
03:50PM 37.9219 -119.7853 103° East 492 566 35,000  Level Oakland Center
03:51PM 37.8922 -119.6161 103° East 494 568 35,000  Level Oakland Center
03:52PM 37.8594 -119.4481 104° East 492 566 35,000  Level Oakland Center
03:53PM 37.8272 -119.2814 104° East 489 563 35,000  Level Oakland Center
03:54PM 37.7950 -119.1111 103° East 495 570 35,000  Level Oakland Center
03:55PM 37.7639 -118.9444 103° East 489 563 35,000  Level Oakland Center
03:56PM 37.7275 -118.7578 104° East 493 567 35,000  Level Oakland Center
03:57PM 37.6961 -118.5919 103° East 488 562 35,000  Level Oakland Center
03:58PM 37.6628 -118.4247 104° East 492 566 35,000  Level Oakland Center
03:59PM 37.6289 -118.2572 104° East 493 567 35,000  Level Oakland Center
04:00PM 37.5964 -118.0906 104° East 492 566 35,000  Level Oakland Center
04:01PM 37.5622 -117.9225 104° East 495 570 35,000 -180 Level Oakland Center
04:02PM 37.5286 -117.7583 104° East 490 564 34,700 -960 Descending Oakland Center
04:03PM 37.4881 -117.5572 104° East 495 570 33,100 -840 Descending Oakland Center
04:04PM 37.4492 -117.3900 106° East 498 573 33,000 -60 Descending Oakland Center
04:05PM 37.3711 -117.2494 125° Southeast 498 573 33,000  Level Oakland Center
04:06PM 37.2650 -117.1389 140° Southeast 503 579 33,000  Level Oakland Center
04:06PM 37.2214 -117.1014 146° Southeast 494 568 33,000  Level Los Angeles Center
04:07PM 37.1075 -117.0056 146° Southeast 490 564 33,000  Level Los Angeles Center
04:08PM 37.0389 -116.9483 146° Southeast 491 565 33,000  Level Oakland Center
04:09PM 36.9264 -116.8533 146° Southeast 486 559 33,000 -840 Level Oakland Center
04:09PM 36.8581 -116.7961 146° Southeast 490 564 31,800 -2,460 Descending Los Angeles Center
04:11PM 36.7533 -116.6828 139° Southeast 497 572 29,300 -2,400 Descending Los Angeles Center
04:12PM 36.6678 -116.5572 130° Southeast 478 550 26,900 -1,620 Descending Los Angeles Center
04:13PM 36.5842 -116.4383 131° Southeast 460 529 26,000 -480 Descending Los Angeles Center
04:14PM 36.4981 -116.3153 131° Southeast 458 527 26,000 -1,620 Level Los Angeles Center
04:15PM 36.4025 -116.1775 131° Southeast 461 531 22,700 -3,000 Descending Los Angeles Center
04:16PM 36.3250 -116.0656 131° Southeast 429 494 19,800 -2,640 Descending Los Angeles Center
04:17PM 36.2589 -115.9842 135° Southeast 403 464 17,800 -2,100 Descending Los Angeles Center
04:18PM 36.1958 -115.8794 127° Southeast 348 400 16,000 -1,380 Descending Los Angeles Center
04:19PM 36.1308 -115.7964 134° Southeast 323 372 15,100 -1,380 Descending Los Angeles Center
04:20PM 36.0556 -115.7253 143° Southeast 318 366 13,100 -1,500 Descending Los Angeles Center
04:20PM 36.0453 -115.7150 141° Southeast 319 367 12,900 -1,920 Descending Los Angeles Center
04:21PM 35.9836 -115.6608 145° Southeast 305 351 11,200 -1,560 Descending Los Angeles Center
04:21PM 35.9625 -115.6408 143° Southeast 302 348 11,000 -240 Descending Los Angeles Center
04:22PM 35.9147 -115.6008 146° Southeast 300 345 11,000  Level Los Angeles Center
04:22PM 35.8797 -115.5667 142° Southeast 298 343 11,000  Level Los Angeles Center
04:23PM 35.8456 -115.5408 148° Southeast 263 303 11,000  Level Los Angeles Center
04:23PM 35.8178 -115.5142 142° Southeast 277 319 11,000 -240 Level Los Angeles Center
04:24PM 35.7944 -115.4833 133° Southeast 251 289 10,800 -600 Descending Los Angeles Center
04:24PM 35.7869 -115.4453 104° East 259 298 10,400 -840 Descending Los Angeles Center
04:25PM 35.7775 -115.4039 106° East 237 273 10,000 -720 Descending Los Angeles Center
04:25PM 35.7706 -115.3689 104° East 244 281 9,700 -1,140 Descending Los Angeles Center
04:26PM 35.7644 -115.3447 107° East 231 266 9,100 -1,800 Descending Los Angeles Center
04:26PM 35.7544 -115.2939 104° East 235 270 7,900 -1,800 Descending Los Angeles Center
04:27PM 35.7439 -115.2586 110° East 230 265 7,100 -900 Descending Los Angeles Center
04:27PM 35.7358 -115.2192 104° East 231 266 7,000 -120 Descending Los Angeles Center
04:28PM 35.7489 -115.1933 58° Northeast 208 239 7,000 -900 Level Los Angeles Center
04:28PM 35.7906 -115.1817 13° North 215 247 6,100 -1,020 Descending Los Angeles Center
04:29PM 35.8081 -115.1767 13° North 210 242 6,000 -780 Descending Los Angeles Center
04:30PM 35.8464 -115.1647 14° North 211 243 5,300 -1,200 Descending Los Angeles Center
04:30PM 35.8608 -115.1619 North 200 230 4,800 -600 Descending Los Angeles Center
04:31PM 35.8953 -115.1497 16° North 208 239 4,700 -840 Descending Los Angeles Center
04:31PM 35.9097 -115.1486 North 161 185 4,000 -1,380 Descending Los Angeles Center
04:32PM 35.9436 -115.1347 18° North 127 146 3,000 -1,020 Descending Los Angeles Center
04:34PM 35.9667 -115.1333 338° Northwest  Level FlightAware Approximate
04:41PM 35.9729 -115.1344 338° Northwest  Level Estimated